Time;durP1;ratioP1;P1;durP2;ratioP2;P2;SDS_P1;SDS_P2;PMS_P1;PMS_P2;Temp;Humidity;BMP_temperature;BMP_pressure;BME280_temperature;BME280_humidity;BME280_pressure;Samples;Min_cycle;Max_cycle;Signal;HPM_P1;HPM_P2
2023/07/03 00:01:16;;;;;;;23.73;8.60;;;;;;;;;;4834621;29;20057;-73
2023/07/03 00:03:51;;;;;;;14.70;8.00;;;;;;;;;;4833945;29;20065;-74
2023/07/03 00:06:22;;;;;;;14.35;8.63;;;;;;;;;;4833877;29;20395;-74
2023/07/03 00:08:52;;;;;;;14.88;7.38;;;;;;;;;;4834246;29;20589;-73
2023/07/03 00:11:23;;;;;;;14.23;8.30;;;;;;;;;;4834441;29;20049;-74
2023/07/03 00:13:53;;;;;;;20.20;8.65;;;;;;;;;;4834236;29;20851;-75
2023/07/03 00:16:24;;;;;;;17.85;7.55;;;;;;;;;;4834198;29;20065;-74
2023/07/03 00:18:54;;;;;;;15.52;8.02;;;;;;;;;;4834296;29;20410;-74
2023/07/03 00:21:25;;;;;;;21.92;7.55;;;;;;;;;;4818134;29;20060;-74
2023/07/03 00:23:56;;;;;;;15.27;6.95;;;;;;;;;;4834263;29;20065;-74
2023/07/03 00:26:27;;;;;;;17.70;8.18;;;;;;;;;;4834291;29;20061;-74
2023/07/03 00:28:57;;;;;;;14.95;7.53;;;;;;;;;;4834011;29;20049;-74
2023/07/03 00:31:30;;;;;;;15.63;7.50;;;;;;;;;;4833515;29;20586;-74
2023/07/03 00:34:02;;;;;;;14.10;7.10;;;;;;;;;;4815968;29;20084;-74
2023/07/03 00:36:32;;;;;;;12.98;7.80;;;;;;;;;;4834209;29;20383;-75
2023/07/03 00:39:04;;;;;;;12.77;6.82;;;;;;;;;;4817388;29;20065;-74
2023/07/03 00:41:35;;;;;;;16.17;7.70;;;;;;;;;;4834088;29;20050;-74
2023/07/03 00:44:12;;;;;;;13.07;7.13;;;;;;;;;;4833318;29;20064;-74
2023/07/03 00:46:46;;;;;;;12.27;6.88;;;;;;;;;;4833844;29;20054;-73
2023/07/03 00:49:19;;;;;;;12.25;6.55;;;;;;;;;;4833748;29;20042;-74
2023/07/03 00:51:54;;;;;;;12.90;6.68;;;;;;;;;;4816667;29;20062;-74
2023/07/03 00:54:26;;;;;;;13.98;6.68;;;;;;;;;;4833750;29;20054;-74
2023/07/03 00:56:57;;;;;;;13.05;7.00;;;;;;;;;;4834570;29;20057;-73
2023/07/03 00:59:27;;;;;;;17.20;7.80;;;;;;;;;;4833444;29;20084;-73
2023/07/03 01:02:19;;;;;;;14.93;8.02;;;;;;;;;;4815488;29;20068;-73
2023/07/03 01:04:58;;;;;;;14.60;7.45;;;;;;;;;;4816195;29;20069;-73
2023/07/03 01:07:32;;;;;;;17.20;8.18;;;;;;;;;;4816618;29;20061;-74
2023/07/03 01:10:08;;;;;;;14.25;8.23;;;;;;;;;;4833603;29;20394;-74
2023/07/03 01:12:44;;;;;;;17.83;7.78;;;;;;;;;;4833030;29;20049;-74
2023/07/03 01:15:20;;;;;;;17.42;7.80;;;;;;;;;;4832205;29;20494;-73
2023/07/03 01:17:53;;;;;;;14.93;7.65;;;;;;;;;;4833615;29;20053;-75
2023/07/03 01:20:30;;;;;;;13.88;7.90;;;;;;;;;;4837162;29;20435;-74
2023/07/03 01:23:18;;;;;;;14.90;6.97;;;;;;;;;;4837150;29;20510;-75
2023/07/03 01:25:52;;;;;;;21.88;9.10;;;;;;;;;;4837039;29;20057;-74
2023/07/03 01:28:25;;;;;;;17.38;8.23;;;;;;;;;;4820480;29;20498;-74
2023/07/03 01:30:57;;;;;;;18.60;9.32;;;;;;;;;;4837684;29;20046;-74
2023/07/03 01:33:33;;;;;;;20.55;10.00;;;;;;;;;;4805295;29;20054;-75
2023/07/03 01:36:05;;;;;;;25.88;9.93;;;;;;;;;;4836560;29;20049;-74
2023/07/03 01:38:38;;;;;;;16.40;9.07;;;;;;;;;;4837215;29;20050;-74
2023/07/03 01:41:12;;;;;;;16.90;8.88;;;;;;;;;;4836831;29;20054;-74
2023/07/03 01:43:45;;;;;;;17.60;8.15;;;;;;;;;;4836990;29;20045;-74
2023/07/03 01:46:23;;;;;;;19.45;8.23;;;;;;;;;;4836564;29;20422;-74
2023/07/03 01:48:54;;;;;;;15.98;7.28;;;;;;;;;;4837122;29;20049;-74
2023/07/03 01:51:56;;;;;;;11.80;6.80;;;;;;;;;;4837351;29;20056;-74
2023/07/03 01:54:41;;;;;;;11.10;5.75;;;;;;;;;;4832879;29;20065;-74
2023/07/03 01:57:18;;;;;;;17.50;6.38;;;;;;;;;;4836701;29;20053;-74
2023/07/03 01:59:53;;;;;;;15.23;5.60;;;;;;;;;;4836741;29;20050;-74
2023/07/03 02:02:28;;;;;;;13.02;6.53;;;;;;;;;;4820185;29;20832;-74
2023/07/03 02:05:12;;;;;;;10.65;6.28;;;;;;;;;;4836151;29;20061;-74
2023/07/03 02:07:45;;;;;;;15.05;6.78;;;;;;;;;;4819532;29;20089;-74
2023/07/03 02:10:17;;;;;;;14.23;7.68;;;;;;;;;;4805024;29;20062;-74
2023/07/03 02:12:48;;;;;;;15.48;7.28;;;;;;;;;;4819408;29;20061;-74
2023/07/03 02:15:22;;;;;;;15.15;8.00;;;;;;;;;;4819463;29;20073;-74
2023/07/03 02:17:53;;;;;;;14.95;7.70;;;;;;;;;;4836207;29;20054;-75
2023/07/03 02:20:26;;;;;;;14.52;7.47;;;;;;;;;;4819902;29;20080;-74
2023/07/03 02:22:57;;;;;;;12.15;7.50;;;;;;;;;;4836959;29;20061;-74
2023/07/03 02:25:29;;;;;;;13.38;7.18;;;;;;;;;;4819117;29;19928;-74
2023/07/03 02:27:59;;;;;;;12.40;6.32;;;;;;;;;;4836091;29;20783;-74
2023/07/03 02:30:31;;;;;;;10.95;6.00;;;;;;;;;;4819280;29;20061;-74
2023/07/03 02:33:03;;;;;;;11.73;6.65;;;;;;;;;;4819232;29;20528;-74
2023/07/03 02:35:35;;;;;;;16.60;7.25;;;;;;;;;;4835964;29;20057;-73
2023/07/03 02:38:06;;;;;;;14.23;7.55;;;;;;;;;;4835549;29;20923;-73
2023/07/03 02:40:38;;;;;;;12.65;7.18;;;;;;;;;;4835451;29;21169;-74
2023/07/03 02:43:09;;;;;;;15.82;7.40;;;;;;;;;;4835871;29;20057;-73
2023/07/03 02:45:42;;;;;;;14.70;7.32;;;;;;;;;;4818931;29;20426;-73
2023/07/03 02:48:15;;;;;;;12.48;7.00;;;;;;;;;;4819147;29;20068;-73
2023/07/03 02:50:53;;;;;;;16.02;7.90;;;;;;;;;;4818951;29;20438;-72
2023/07/03 02:53:25;;;;;;;11.55;6.82;;;;;;;;;;4819055;29;20079;-73
2023/07/03 02:56:03;;;;;;;13.57;7.05;;;;;;;;;;4819516;29;20414;-72
2023/07/03 02:58:35;;;;;;;13.60;7.93;;;;;;;;;;4818821;29;20062;-73
2023/07/03 03:01:06;;;;;;;13.00;7.63;;;;;;;;;;4818394;29;20064;-72
2023/07/03 03:03:37;;;;;;;17.00;7.15;;;;;;;;;;4817698;29;20053;-73
2023/07/03 03:06:08;;;;;;;14.52;7.85;;;;;;;;;;4803715;29;20061;-72
2023/07/03 03:08:38;;;;;;;12.82;7.78;;;;;;;;;;4818805;29;20050;-73
2023/07/03 03:11:10;;;;;;;11.32;6.65;;;;;;;;;;4818643;29;20058;-73
2023/07/03 03:13:43;;;;;;;14.07;7.50;;;;;;;;;;4804256;29;20087;-73
2023/07/03 03:16:14;;;;;;;14.80;7.63;;;;;;;;;;4817814;29;20061;-73
2023/07/03 03:18:47;;;;;;;17.23;9.48;;;;;;;;;;4817899;29;20060;-73
2023/07/03 03:21:17;;;;;;;66.72;11.05;;;;;;;;;;4818074;29;20074;-73
2023/07/03 03:23:48;;;;;;;160.55;12.98;;;;;;;;;;4818085;29;20065;-72
2023/07/03 03:26:19;;;;;;;67.57;10.90;;;;;;;;;;4835009;29;20054;-73
2023/07/03 03:28:50;;;;;;;132.25;10.60;;;;;;;;;;4818814;29;20085;-73
2023/07/03 03:31:20;;;;;;;177.50;12.50;;;;;;;;;;4818658;29;20422;-72
2023/07/03 03:33:56;;;;;;;251.10;14.93;;;;;;;;;;4818376;29;20065;-73
2023/07/03 03:36:27;;;;;;;195.82;11.13;;;;;;;;;;4835290;29;20061;-73
2023/07/03 03:38:58;;;;;;;66.68;8.13;;;;;;;;;;4818045;29;20069;-73
2023/07/03 03:41:29;;;;;;;74.65;9.45;;;;;;;;;;4818023;29;20823;-72
2023/07/03 03:44:01;;;;;;;52.10;8.35;;;;;;;;;;4817808;29;20552;-73
2023/07/03 03:46:31;;;;;;;193.70;11.38;;;;;;;;;;4835507;29;20068;-74
2023/07/03 03:49:02;;;;;;;156.00;14.20;;;;;;;;;;4834739;29;20042;-73
2023/07/03 03:51:34;;;;;;;222.20;13.70;;;;;;;;;;4817527;29;20510;-73
2023/07/03 03:54:05;;;;;;;120.65;9.05;;;;;;;;;;4818092;29;20521;-74
2023/07/03 03:56:35;;;;;;;244.52;13.02;;;;;;;;;;4817636;29;20061;-74
2023/07/03 03:59:08;;;;;;;181.73;10.27;;;;;;;;;;4818138;29;20057;-73
2023/07/03 04:01:38;;;;;;;82.45;8.13;;;;;;;;;;4817651;29;20065;-73
2023/07/03 04:04:08;;;;;;;141.18;11.68;;;;;;;;;;4817674;29;20065;-74
2023/07/03 04:06:39;;;;;;;137.98;10.27;;;;;;;;;;4817886;29;20062;-74
2023/07/03 04:09:10;;;;;;;173.02;9.73;;;;;;;;;;4834321;29;20065;-73
2023/07/03 04:11:41;;;;;;;287.02;14.13;;;;;;;;;;4833275;29;20549;-73
2023/07/03 04:14:12;;;;;;;179.10;12.10;;;;;;;;;;4834528;29;20088;-74
2023/07/03 04:16:43;;;;;;;171.63;9.60;;;;;;;;;;4834300;29;20041;-73
2023/07/03 04:19:18;;;;;;;167.02;9.77;;;;;;;;;;4834239;29;20354;-74
2023/07/03 04:21:49;;;;;;;91.28;7.72;;;;;;;;;;4834237;29;20529;-74
2023/07/03 04:24:19;;;;;;;56.88;7.13;;;;;;;;;;4834311;29;20137;-73
2023/07/03 04:26:54;;;;;;;43.17;7.18;;;;;;;;;;4817746;29;20054;-74
2023/07/03 04:29:25;;;;;;;49.05;6.60;;;;;;;;;;4834279;29;20053;-74
2023/07/03 04:31:56;;;;;;;65.88;7.63;;;;;;;;;;4834405;29;20068;-73
2023/07/03 04:34:26;;;;;;;104.13;8.10;;;;;;;;;;4834385;29;20537;-74
2023/07/03 04:36:56;;;;;;;54.20;6.65;;;;;;;;;;4834133;29;20054;-74
2023/07/03 04:39:26;;;;;;;84.75;8.15;;;;;;;;;;4833849;29;20505;-73
2023/07/03 04:42:00;;;;;;;45.97;7.75;;;;;;;;;;4833927;29;20046;-74
2023/07/03 04:44:33;;;;;;;41.95;6.85;;;;;;;;;;4833800;29;20518;-74
2023/07/03 04:47:05;;;;;;;64.93;7.80;;;;;;;;;;4834184;29;20418;-74
2023/07/03 04:49:35;;;;;;;52.63;6.88;;;;;;;;;;4833631;29;20054;-74
2023/07/03 04:52:07;;;;;;;39.72;6.75;;;;;;;;;;4834914;29;20053;-74
2023/07/03 04:54:38;;;;;;;30.77;7.32;;;;;;;;;;4837897;29;20410;-74
2023/07/03 04:57:08;;;;;;;40.65;6.25;;;;;;;;;;4837555;29;20056;-73
2023/07/03 04:59:38;;;;;;;62.03;7.18;;;;;;;;;;4837782;29;20045;-74
2023/07/03 05:02:09;;;;;;;33.78;6.20;;;;;;;;;;4837493;29;20057;-73
2023/07/03 05:04:40;;;;;;;28.83;6.57;;;;;;;;;;4820675;29;20062;-74
2023/07/03 05:07:11;;;;;;;55.63;8.32;;;;;;;;;;4836958;29;20053;-74
2023/07/03 05:09:41;;;;;;;30.95;6.70;;;;;;;;;;4821528;29;20849;-74
2023/07/03 05:12:11;;;;;;;39.05;6.28;;;;;;;;;;4837352;29;20510;-74
2023/07/03 05:14:41;;;;;;;45.97;6.13;;;;;;;;;;4837233;29;20050;-74
2023/07/03 05:17:13;;;;;;;97.55;6.88;;;;;;;;;;4837083;29;20057;-74
2023/07/03 05:19:44;;;;;;;84.65;7.35;;;;;;;;;;4837522;29;20426;-74
2023/07/03 05:22:14;;;;;;;159.80;8.73;;;;;;;;;;4837255;29;20510;-74
2023/07/03 05:24:43;;;;;;;55.03;6.68;;;;;;;;;;4836980;29;20062;-74
2023/07/03 05:27:15;;;;;;;48.13;6.50;;;;;;;;;;4837355;29;20057;-74
2023/07/03 05:29:46;;;;;;;84.90;7.07;;;;;;;;;;4836876;29;20041;-74
2023/07/03 05:32:16;;;;;;;51.15;6.85;;;;;;;;;;4837015;29;20062;-74
2023/07/03 05:34:46;;;;;;;63.63;6.63;;;;;;;;;;4836903;29;20050;-74
2023/07/03 05:37:18;;;;;;;34.65;6.15;;;;;;;;;;4836417;29;20522;-74
2023/07/03 05:39:50;;;;;;;100.38;7.28;;;;;;;;;;4836485;29;20046;-74
2023/07/03 05:42:20;;;;;;;125.22;7.97;;;;;;;;;;4837281;29;20049;-74
2023/07/03 05:44:51;;;;;;;223.00;10.85;;;;;;;;;;4836810;29;20057;-74
2023/07/03 05:47:21;;;;;;;124.50;8.73;;;;;;;;;;4836741;29;20053;-74
2023/07/03 05:49:53;;;;;;;113.93;7.22;;;;;;;;;;4837016;29;20046;-74
2023/07/03 05:52:24;;;;;;;42.53;6.80;;;;;;;;;;4836542;29;20049;-74
2023/07/03 05:54:54;;;;;;;38.60;6.05;;;;;;;;;;4835993;29;20069;-74
2023/07/03 05:57:24;;;;;;;67.82;8.00;;;;;;;;;;4837143;29;20120;-74
2023/07/03 05:59:55;;;;;;;66.78;6.18;;;;;;;;;;4820419;29;20541;-74
2023/07/03 06:02:26;;;;;;;99.28;7.47;;;;;;;;;;4836796;29;20430;-74
2023/07/03 06:04:56;;;;;;;136.52;8.57;;;;;;;;;;4835341;29;20534;-74
2023/07/03 06:07:27;;;;;;;169.73;7.95;;;;;;;;;;4836517;29;20050;-74
2023/07/03 06:09:57;;;;;;;113.93;6.97;;;;;;;;;;4836525;29;20049;-74
2023/07/03 06:12:29;;;;;;;90.68;6.07;;;;;;;;;;4836370;29;20054;-74
2023/07/03 06:15:02;;;;;;;211.55;8.50;;;;;;;;;;4836793;29;20053;-74
2023/07/03 06:17:34;;;;;;;167.18;7.10;;;;;;;;;;4820248;29;20058;-74
2023/07/03 06:20:06;;;;;;;206.75;11.68;;;;;;;;;;4836150;29;20419;-74
2023/07/03 06:22:36;;;;;;;223.30;10.55;;;;;;;;;;4836189;29;20553;-74
2023/07/03 06:25:09;;;;;;;120.22;7.65;;;;;;;;;;4836250;29;20632;-74
2023/07/03 06:27:40;;;;;;;150.00;8.90;;;;;;;;;;4835915;29;20053;-74
2023/07/03 06:30:11;;;;;;;127.70;6.85;;;;;;;;;;4836348;29;20050;-74
2023/07/03 06:32:41;;;;;;;183.60;8.77;;;;;;;;;;4836138;29;20057;-74
2023/07/03 06:35:11;;;;;;;100.43;7.95;;;;;;;;;;4836020;29;20418;-74
2023/07/03 06:37:44;;;;;;;33.78;5.10;;;;;;;;;;4836037;29;20080;-74
2023/07/03 06:40:15;;;;;;;97.57;6.40;;;;;;;;;;4835282;29;20053;-74
2023/07/03 06:42:46;;;;;;;72.05;5.43;;;;;;;;;;4836244;29;20050;-74
2023/07/03 06:45:20;;;;;;;115.60;7.75;;;;;;;;;;4819590;29;20058;-74
2023/07/03 06:47:51;;;;;;;32.00;5.65;;;;;;;;;;4819224;29;20403;-74
2023/07/03 06:50:22;;;;;;;37.33;5.22;;;;;;;;;;4835894;29;20054;-74
2023/07/03 06:52:52;;;;;;;52.63;5.55;;;;;;;;;;4835369;29;20065;-74
2023/07/03 06:55:22;;;;;;;88.20;6.68;;;;;;;;;;4835701;29;20054;-74
2023/07/03 06:57:51;;;;;;;;;;;;;;;;;;4836242;29;20053;-74
2023/07/03 07:00:23;;;;;;;50.55;6.30;;;;;;;;;;4835543;29;19928;-74
2023/07/03 07:02:54;;;;;;;38.90;4.85;;;;;;;;;;4835912;29;20422;-73
2023/07/03 07:05:28;;;;;;;8.75;4.18;;;;;;;;;;4818911;29;20053;-73
2023/07/03 07:07:59;;;;;;;12.05;4.20;;;;;;;;;;4834943;29;20046;-75
2023/07/03 07:10:29;;;;;;;20.80;4.85;;;;;;;;;;4819243;29;20054;-75
2023/07/03 07:13:00;;;;;;;18.30;4.22;;;;;;;;;;4835339;29;20065;-75
2023/07/03 07:15:36;;;;;;;7.70;4.15;;;;;;;;;;4834658;29;20490;-74
2023/07/03 07:18:08;;;;;;;18.85;5.28;;;;;;;;;;4835580;29;20045;-74
2023/07/03 07:20:41;;;;;;;14.77;4.32;;;;;;;;;;4835655;29;20418;-74
2023/07/03 07:23:13;;;;;;;6.80;3.97;;;;;;;;;;4834668;29;20054;-74
2023/07/03 07:25:53;;;;;;;10.63;3.92;;;;;;;;;;4834287;29;20134;-74
2023/07/03 07:28:26;;;;;;;11.13;4.15;;;;;;;;;;4834831;29;20049;-75
2023/07/03 07:30:57;;;;;;;25.42;4.60;;;;;;;;;;4818405;29;20073;-75
2023/07/03 07:33:27;;;;;;;17.85;4.68;;;;;;;;;;4835395;29;20074;-75
2023/07/03 07:35:58;;;;;;;24.92;4.57;;;;;;;;;;4834828;29;20041;-75
2023/07/03 07:38:29;;;;;;;20.80;4.53;;;;;;;;;;4834954;29;20049;-75
2023/07/03 07:41:02;;;;;;;;;;;;;;;;;;4835277;29;20521;-76
2023/07/03 07:43:33;;;;;;;13.23;3.58;;;;;;;;;;4834893;29;20588;-75
2023/07/03 07:46:04;;;;;;;63.15;5.60;;;;;;;;;;4834408;29;20046;-75
2023/07/03 07:48:36;;;;;;;74.65;4.63;;;;;;;;;;4834759;29;20066;-75
2023/07/03 07:51:11;;;;;;;;;;;;;;;;;;4834897;29;20062;-75
2023/07/03 07:53:42;;;;;;;32.83;4.35;;;;;;;;;;4834852;29;19925;-75
2023/07/03 07:56:13;;;;;;;41.50;4.13;;;;;;;;;;4834683;29;20518;-75
2023/07/03 07:58:44;;;;;;;180.18;6.88;;;;;;;;;;4834570;29;20058;-75
2023/07/03 08:01:14;;;;;;;107.70;5.53;;;;;;;;;;4834887;29;20058;-75
2023/07/03 08:03:48;;;;;;;39.70;3.97;;;;;;;;;;4817866;29;20066;-74
2023/07/03 08:06:18;;;;;;;20.95;5.10;;;;;;;;;;4834445;29;20054;-74
2023/07/03 08:08:52;;;;;;;29.25;5.18;;;;;;;;;;4834644;29;20521;-74
2023/07/03 08:11:25;;;;;;;20.70;5.15;;;;;;;;;;4834602;29;20042;-74
2023/07/03 08:13:55;;;;;;;42.25;5.70;;;;;;;;;;4833801;29;20544;-74
2023/07/03 08:16:26;;;;;;;11.85;5.13;;;;;;;;;;4834363;29;20063;-74
2023/07/03 08:18:57;;;;;;;14.35;4.18;;;;;;;;;;4834164;29;20540;-74
2023/07/03 08:21:27;;;;;;;;;;;;;;;;;;4835006;29;20443;-74
2023/07/03 08:23:58;;;;;;;26.88;4.95;;;;;;;;;;4802683;29;20296;-76
2023/07/03 08:26:30;;;;;;;21.98;5.43;;;;;;;;;;4833634;29;20054;-75
2023/07/03 08:29:01;;;;;;;23.75;4.93;;;;;;;;;;4833298;29;20058;-75
2023/07/03 08:31:31;;;;;;;34.65;6.57;;;;;;;;;;4834313;29;20056;-75
2023/07/03 08:34:02;;;;;;;13.88;4.18;;;;;;;;;;4834060;29;20553;-75
2023/07/03 08:36:33;;;;;;;15.68;4.30;;;;;;;;;;4834204;29;20065;-75
2023/07/03 08:39:08;;;;;;;14.75;4.72;;;;;;;;;;4834386;29;20403;-75
2023/07/03 08:41:47;;;;;;;4.78;3.80;;;;;;;;;;4834462;29;20125;-75
2023/07/03 08:44:17;;;;;;;4.70;3.78;;;;;;;;;;4834170;29;20057;-75
2023/07/03 08:46:49;;;;;;;8.68;4.20;;;;;;;;;;4834369;29;20055;-74
2023/07/03 08:49:41;;;;;;;8.10;4.13;;;;;;;;;;4833584;29;20060;-75
2023/07/03 08:52:16;;;;;;;5.90;4.00;;;;;;;;;;4834471;29;20054;-75
2023/07/03 08:54:49;;;;;;;5.82;3.97;;;;;;;;;;4834333;29;20053;-75
2023/07/03 08:57:21;;;;;;;5.53;4.10;;;;;;;;;;4834507;29;20046;-75
2023/07/03 08:59:54;;;;;;;11.80;4.85;;;;;;;;;;4834327;29;20430;-75
2023/07/03 09:02:39;;;;;;;6.05;3.80;;;;;;;;;;4834220;29;20050;-76
2023/07/03 09:05:31;;;;;;;5.65;4.00;;;;;;;;;;4834357;29;20061;-75
2023/07/03 09:08:09;;;;;;;5.43;3.78;;;;;;;;;;4833656;29;20081;-75
2023/07/03 09:10:49;;;;;;;7.38;3.95;;;;;;;;;;4818124;29;20502;-75
2023/07/03 09:13:35;;;;;;;5.10;3.63;;;;;;;;;;4817079;29;20065;-75
2023/07/03 09:16:12;;;;;;;5.05;3.30;;;;;;;;;;4834427;29;20050;-76
2023/07/03 09:18:57;;;;;;;4.55;3.65;;;;;;;;;;4833656;29;20050;-75
2023/07/03 09:21:30;;;;;;;5.40;3.70;;;;;;;;;;4834047;29;20057;-75
2023/07/03 09:24:30;;;;;;;5.97;4.18;;;;;;;;;;4816688;29;20522;-75
2023/07/03 09:27:20;;;;;;;5.00;3.83;;;;;;;;;;4831454;29;20076;-76
2023/07/03 09:29:55;;;;;;;6.55;3.92;;;;;;;;;;4833892;29;20046;-75
2023/07/03 09:32:31;;;;;;;5.68;4.10;;;;;;;;;;4833867;29;20499;-75
2023/07/03 09:35:12;;;;;;;42.03;4.55;;;;;;;;;;4833508;29;20066;-75
2023/07/03 09:37:50;;;;;;;20.75;3.60;;;;;;;;;;4833781;29;20049;-75
2023/07/03 09:40:35;;;;;;;6.20;3.63;;;;;;;;;;4836006;29;20049;-75
2023/07/03 09:43:13;;;;;;;53.97;4.47;;;;;;;;;;4836981;29;20073;-75
2023/07/03 09:45:45;;;;;;;89.78;5.97;;;;;;;;;;4837186;29;20053;-75
2023/07/03 09:48:18;;;;;;;35.80;4.32;;;;;;;;;;4837199;29;20061;-78
2023/07/03 09:50:50;;;;;;;44.63;3.92;;;;;;;;;;4820806;29;20778;-76
2023/07/03 09:53:40;;;;;;;6.03;3.53;;;;;;;;;;4837029;29;20379;-76
2023/07/03 09:56:17;;;;;;;5.30;3.88;;;;;;;;;;4836277;29;20050;-76
2023/07/03 09:58:51;;;;;;;7.03;3.88;;;;;;;;;;4837165;29;20050;-77
2023/07/03 10:01:29;;;;;;;5.53;3.90;;;;;;;;;;4837533;29;20057;-75
2023/07/03 10:04:13;;;;;;;5.10;3.70;;;;;;;;;;4836632;29;20054;-75
2023/07/03 10:06:59;;;;;;;4.47;3.17;;;;;;;;;;4836827;29;20042;-75
2023/07/03 10:09:33;;;;;;;4.93;3.90;;;;;;;;;;4820343;29;20065;-75
2023/07/03 10:12:11;;;;;;;5.65;4.13;;;;;;;;;;4819318;29;20058;-75
2023/07/03 10:14:52;;;;;;;6.05;3.92;;;;;;;;;;4835929;29;20054;-76
2023/07/03 10:17:29;;;;;;;4.85;3.80;;;;;;;;;;4836160;29;20050;-76
2023/07/03 10:20:10;;;;;;;26.27;6.70;;;;;;;;;;4836543;29;20061;-75
2023/07/03 10:22:43;;;;;;;7.28;3.90;;;;;;;;;;4836645;29;20050;-77
2023/07/03 10:25:39;;;;;;;11.15;4.32;;;;;;;;;;4835704;29;20534;-77
2023/07/03 10:28:17;;;;;;;6.75;4.10;;;;;;;;;;4836002;29;20049;-79
2023/07/03 10:30:53;;;;;;;5.72;4.07;;;;;;;;;;4836089;29;20495;-77
2023/07/03 10:33:30;;;;;;;5.40;3.78;;;;;;;;;;4820436;29;20054;-75
2023/07/03 10:36:03;;;;;;;10.75;3.70;;;;;;;;;;4835992;29;20050;-74
2023/07/03 10:39:07;;;;;;;5.30;3.42;;;;;;;;;;4836584;29;20502;-74
2023/07/03 10:41:47;;;;;;;4.88;3.58;;;;;;;;;;4799661;29;20521;-76
2023/07/03 10:44:29;;;;;;;6.43;3.92;;;;;;;;;;4799819;29;20047;-74
2023/07/03 10:47:17;;;;;;;8.05;3.95;;;;;;;;;;4799188;29;20070;-75
2023/07/03 10:49:49;;;;;;;11.88;6.13;;;;;;;;;;4782900;29;20063;-74
2023/07/03 10:52:54;;;;;;;24.05;4.53;;;;;;;;;;4799197;29;20051;-75
2023/07/03 10:55:37;;;;;;;9.50;4.15;;;;;;;;;;4799280;29;20065;-74
2023/07/03 10:58:31;;;;;;;9.60;4.10;;;;;;;;;;4798678;29;20059;-76
2023/07/03 11:01:46;;;;;;;6.40;4.38;;;;;;;;;;4799428;29;20419;-76
2023/07/03 11:04:32;;;;;;;5.43;3.80;;;;;;;;;;4761262;29;20073;-75
2023/07/03 11:07:09;;;;;;;6.78;4.40;;;;;;;;;;4798790;29;20059;-75
2023/07/03 11:09:46;;;;;;;7.82;4.57;;;;;;;;;;4799202;29;20110;-74
2023/07/03 11:12:25;;;;;;;8.82;4.28;;;;;;;;;;4799131;29;20058;-74
2023/07/03 11:15:13;;;;;;;6.00;4.43;;;;;;;;;;4798661;29;20062;-75
2023/07/03 11:18:22;;;;;;;7.20;4.00;;;;;;;;;;4798946;29;20062;-75
2023/07/03 11:21:42;;;;;;;5.53;3.53;;;;;;;;;;4765077;29;20500;-74
2023/07/03 11:25:02;;;;;;;5.28;3.65;;;;;;;;;;4784186;29;20059;-74
2023/07/03 11:27:47;;;;;;;6.25;4.05;;;;;;;;;;4777730;29;20062;-74
2023/07/03 11:30:25;;;;;;;6.55;3.72;;;;;;;;;;4798602;29;20508;-74
2023/07/03 11:33:01;;;;;;;5.43;4.40;;;;;;;;;;4799073;29;20416;-74
2023/07/03 11:35:32;;;;;;;4.85;3.00;;;;;;;;;;4798210;29;20050;-74
2023/07/03 11:38:16;;;;;;;9.82;3.78;;;;;;;;;;4798289;29;20063;-74
2023/07/03 11:40:55;;;;;;;5.25;3.92;;;;;;;;;;4798652;29;20054;-73
2023/07/03 11:43:33;;;;;;;6.95;2.53;;;;;;;;;;4798851;29;20051;-74
2023/07/03 11:46:08;;;;;;;3.75;1.98;;;;;;;;;;4799320;29;20055;-74
2023/07/03 11:48:38;;;;;;;3.70;2.00;;;;;;;;;;4797736;29;20515;-74
2023/07/03 11:51:33;;;;;;;2.83;1.60;;;;;;;;;;4799038;29;20065;-74
2023/07/03 11:54:18;;;;;;;3.00;2.10;;;;;;;;;;4798310;29;20050;-75
2023/07/03 11:56:54;;;;;;;2.15;1.70;;;;;;;;;;4798083;29;20467;-74
2023/07/03 11:59:31;;;;;;;3.13;1.80;;;;;;;;;;4798433;29;20812;-74
2023/07/03 12:02:17;;;;;;;3.63;1.83;;;;;;;;;;4797987;29;20511;-74
2023/07/03 12:04:50;;;;;;;3.13;1.38;;;;;;;;;;4797975;29;20055;-74
2023/07/03 12:07:21;;;;;;;2.67;1.50;;;;;;;;;;4797435;29;20043;-73
2023/07/03 12:09:52;;;;;;;4.45;1.80;;;;;;;;;;4798643;29;20054;-74
2023/07/03 12:12:27;;;;;;;1.63;1.52;;;;;;;;;;4797963;29;20058;-74
2023/07/03 12:15:09;;;;;;;2.42;1.55;;;;;;;;;;4798124;29;20078;-74
2023/07/03 12:17:40;;;;;;;2.03;1.60;;;;;;;;;;4797910;29;20609;-73
2023/07/03 12:20:21;;;;;;;3.20;1.63;;;;;;;;;;4798161;29;20546;-74
2023/07/03 12:22:52;;;;;;;;;;;;;;;;;;4798716;29;20058;-75
2023/07/03 12:25:28;;;;;;;2.53;1.80;;;;;;;;;;4798118;29;19929;-74
2023/07/03 12:28:15;;;;;;;9.90;1.90;;;;;;;;;;4797989;29;20069;-74
2023/07/03 12:30:45;;;;;;;13.10;6.53;;;;;;;;;;4798255;29;20424;-74
2023/07/03 12:33:20;;;;;;;3.28;2.03;;;;;;;;;;4797674;29;20511;-74
2023/07/03 12:35:51;;;;;;;5.15;2.38;;;;;;;;;;4797580;29;20055;-75
2023/07/03 12:38:22;;;;;;;4.53;2.20;;;;;;;;;;4797781;29;20519;-74
2023/07/03 12:40:52;;;;;;;2.55;2.10;;;;;;;;;;4781368;29;20062;-73
2023/07/03 12:43:22;;;;;;;3.47;2.72;;;;;;;;;;4782048;29;20412;-74
2023/07/03 12:45:54;;;;;;;2.58;2.33;;;;;;;;;;4797677;29;20373;-74
2023/07/03 12:48:24;;;;;;;3.35;2.30;;;;;;;;;;4797936;29;20389;-74
2023/07/03 12:50:56;;;;;;;10.38;4.05;;;;;;;;;;4797982;29;20054;-74
2023/07/03 12:53:32;;;;;;;4.53;2.30;;;;;;;;;;4797918;29;20431;-75
2023/07/03 12:56:07;;;;;;;5.57;1.85;;;;;;;;;;4797533;29;20530;-74
2023/07/03 12:58:39;;;;;;;10.05;2.30;;;;;;;;;;4797703;29;20047;-74
2023/07/03 13:01:10;;;;;;;8.15;2.10;;;;;;;;;;4797400;29;20055;-74
2023/07/03 13:03:43;;;;;;;3.47;1.63;;;;;;;;;;4797303;29;20058;-75
2023/07/03 13:06:15;;;;;;;2.03;1.75;;;;;;;;;;4798293;29;20059;-73
2023/07/03 13:08:50;;;;;;;2.83;2.00;;;;;;;;;;4797631;29;20419;-74
2023/07/03 13:11:43;;;;;;;12.23;3.00;;;;;;;;;;4781845;29;21290;-75
2023/07/03 13:14:24;;;;;;;2.30;2.00;;;;;;;;;;4798326;29;20058;-74
2023/07/03 13:16:59;;;;;;;5.20;2.00;;;;;;;;;;4801435;29;20527;-75
2023/07/03 13:19:37;;;;;;;4.80;2.67;;;;;;;;;;4801439;29;20413;-74
2023/07/03 13:22:18;;;;;;;4.28;2.78;;;;;;;;;;4801716;29;20051;-75
2023/07/03 13:24:52;;;;;;;22.40;4.75;;;;;;;;;;4801257;29;20224;-75
2023/07/03 13:27:25;;;;;;;6.88;3.63;;;;;;;;;;4784351;29;20058;-74
2023/07/03 13:30:36;;;;;;;6.15;2.67;;;;;;;;;;4800251;29;20511;-75
2023/07/03 13:33:10;;;;;;;4.07;2.22;;;;;;;;;;4726999;30;20083;-76
2023/07/03 13:35:50;;;;;;;7.28;2.55;;;;;;;;;;4727494;30;20097;-75
2023/07/03 13:38:26;;;;;;;5.28;3.08;;;;;;;;;;4775809;29;20073;-73
2023/07/03 13:40:59;;;;;;;11.02;3.65;;;;;;;;;;4800907;29;20043;-74
2023/07/03 13:43:31;;;;;;;10.07;3.97;;;;;;;;;;4801185;29;20046;-75
2023/07/03 13:46:02;;;;;;;7.85;3.72;;;;;;;;;;4800733;29;20055;-74
2023/07/03 13:48:32;;;;;;;5.57;3.55;;;;;;;;;;4801692;29;20054;-77
2023/07/03 13:51:03;;;;;;;7.80;3.47;;;;;;;;;;4801185;29;20812;-74
2023/07/03 13:53:33;;;;;;;10.73;3.85;;;;;;;;;;4800627;29;20073;-74
2023/07/03 13:56:04;;;;;;;5.90;2.83;;;;;;;;;;4800959;29;20050;-74
2023/07/03 13:58:36;;;;;;;5.05;3.03;;;;;;;;;;4800683;29;20534;-74
2023/07/03 14:01:07;;;;;;;8.90;3.17;;;;;;;;;;4800974;29;20043;-74
2023/07/03 14:03:54;;;;;;;5.47;2.60;;;;;;;;;;4800278;29;20058;-73
2023/07/03 14:06:25;;;;;;;5.15;2.63;;;;;;;;;;4800603;29;20054;-74
2023/07/03 14:08:56;;;;;;;4.95;2.75;;;;;;;;;;4784620;29;20055;-75
2023/07/03 14:11:26;;;;;;;3.72;1.95;;;;;;;;;;4801062;29;20054;-74
2023/07/03 14:13:58;;;;;;;4.80;2.40;;;;;;;;;;4800688;29;20051;-75
2023/07/03 14:16:29;;;;;;;3.40;1.92;;;;;;;;;;4784269;29;20051;-74
2023/07/03 14:19:01;;;;;;;11.18;3.08;;;;;;;;;;4801045;29;20043;-75
2023/07/03 14:21:35;;;;;;;4.05;2.30;;;;;;;;;;4800295;29;20073;-73
2023/07/03 14:24:06;;;;;;;3.10;2.75;;;;;;;;;;4800249;29;20069;-73
2023/07/03 14:26:37;;;;;;;5.68;2.60;;;;;;;;;;4800740;29;20055;-74
2023/07/03 14:29:07;;;;;;;5.70;2.90;;;;;;;;;;4802394;29;20055;-75
2023/07/03 14:31:37;;;;;;;5.65;2.65;;;;;;;;;;4801540;29;20054;-77
2023/07/03 14:34:07;;;;;;;21.45;3.53;;;;;;;;;;4802674;29;20062;-75
2023/07/03 14:36:37;;;;;;;3.85;2.45;;;;;;;;;;4803055;29;20053;-74
2023/07/03 14:39:08;;;;;;;4.93;2.50;;;;;;;;;;4803095;29;20405;-75
2023/07/03 14:41:40;;;;;;;6.55;2.47;;;;;;;;;;4803148;29;20814;-75
2023/07/03 14:44:10;;;;;;;3.67;2.30;;;;;;;;;;4788242;29;20050;-77
2023/07/03 14:46:40;;;;;;;4.40;2.40;;;;;;;;;;4802895;29;20058;-75
2023/07/03 14:49:10;;;;;;;4.22;2.83;;;;;;;;;;4802884;29;20063;-75
2023/07/03 14:51:43;;;;;;;17.45;3.35;;;;;;;;;;4802729;29;20051;-74
2023/07/03 14:54:13;;;;;;;4.70;2.22;;;;;;;;;;4799997;29;20051;-74
2023/07/03 14:56:45;;;;;;;3.60;2.15;;;;;;;;;;4801363;29;20054;-74
2023/07/03 14:59:14;;;;;;;7.18;3.10;;;;;;;;;;4800588;29;20436;-76
2023/07/03 15:01:47;;;;;;;17.05;3.58;;;;;;;;;;4801539;29;20106;-75
2023/07/03 15:04:18;;;;;;;5.40;2.42;;;;;;;;;;4801968;29;20050;-75
2023/07/03 15:06:48;;;;;;;7.38;2.85;;;;;;;;;;4800336;29;20058;-74
2023/07/03 15:09:18;;;;;;;3.90;2.28;;;;;;;;;;4803082;29;20058;-75
2023/07/03 15:11:49;;;;;;;5.32;2.97;;;;;;;;;;4801320;29;20526;-75
2023/07/03 15:14:21;;;;;;;3.20;1.98;;;;;;;;;;4809176;29;20062;-76
2023/07/03 15:16:51;;;;;;;8.88;2.35;;;;;;;;;;4800673;29;20059;-76